createdAt,value
2022-08-25T00:00:34.980Z,21.20
2022-08-25T00:03:01.810Z,21.15
2022-08-25T00:05:32.206Z,21.09
2022-08-25T00:08:08.969Z,21.05
2022-08-25T00:10:37.340Z,20.97
2022-08-25T00:13:12.776Z,20.90
2022-08-25T00:15:39.218Z,20.84
2022-08-25T00:18:05.863Z,20.80
2022-08-25T00:20:54.790Z,20.72
2022-08-25T00:23:28.753Z,20.66
2022-08-25T00:25:55.371Z,20.66
2022-08-25T00:28:28.763Z,20.60
2022-08-25T00:30:55.376Z,20.52
2022-08-25T00:33:21.932Z,20.50
2022-08-25T00:36:02.747Z,20.50
2022-08-25T00:38:29.412Z,20.49
2022-08-25T00:41:14.747Z,20.51
2022-08-25T00:43:48.747Z,20.51
2022-08-25T00:46:26.818Z,20.49
2022-08-25T00:49:05.779Z,20.47
2022-08-25T00:51:38.915Z,20.43
2022-08-25T00:54:14.976Z,20.41
2022-08-25T00:56:41.968Z,20.38
2022-08-25T00:59:08.682Z,20.34
2022-08-25T01:01:42.988Z,20.29
2022-08-25T01:04:16.732Z,20.23
2022-08-25T01:06:50.944Z,20.20
2022-08-25T01:09:19.903Z,20.18
2022-08-25T01:11:54.905Z,20.16
2022-08-25T01:14:30.760Z,20.09
2022-08-25T01:17:04.742Z,20.05
2022-08-25T01:19:33.538Z,20.00
2022-08-25T01:22:06.765Z,19.98
2022-08-25T01:24:52.921Z,19.95
2022-08-25T01:27:26.827Z,19.84
2022-08-25T01:29:53.974Z,19.73
2022-08-25T01:32:26.801Z,19.69
2022-08-25T01:35:00.944Z,19.69
2022-08-25T01:37:27.325Z,19.66
2022-08-25T01:39:54.525Z,19.55
2022-08-25T01:43:06.781Z,19.44
2022-08-25T01:45:35.062Z,19.39
2022-08-25T01:48:02.613Z,19.45
2022-08-25T01:50:36.772Z,19.45
2022-08-25T01:53:14.558Z,19.43
2022-08-25T01:56:00.761Z,19.39
2022-08-25T01:58:35.953Z,19.28
2022-08-25T02:01:12.963Z,19.29
2022-08-25T02:03:42.327Z,19.31
2022-08-25T02:06:18.798Z,19.30
2022-08-25T02:08:45.648Z,19.29
2022-08-25T02:11:22.739Z,19.26
2022-08-25T02:13:49.268Z,19.20
2022-08-25T02:16:26.828Z,19.14
2022-08-25T02:19:00.957Z,19.12
2022-08-25T02:21:28.373Z,19.13
2022-08-25T02:24:05.352Z,19.15
2022-08-25T02:26:31.962Z,19.20
2022-08-25T02:29:04.792Z,19.21
2022-08-25T02:31:31.499Z,19.23
2022-08-25T02:34:12.950Z,19.22
2022-08-25T02:36:39.506Z,19.17
2022-08-25T02:39:07.487Z,19.19
2022-08-25T02:41:40.730Z,19.20
2022-08-25T02:44:09.127Z,19.23
2022-08-25T02:46:42.737Z,19.25
2022-08-25T02:49:09.476Z,19.24
2022-08-25T02:51:42.737Z,19.22
2022-08-25T02:54:09.554Z,19.16
2022-08-25T02:56:36.393Z,19.20
2022-08-25T02:59:09.779Z,19.21
2022-08-25T03:01:36.339Z,19.29
2022-08-25T03:04:10.781Z,19.24
2022-08-25T03:06:37.285Z,19.32
2022-08-25T03:09:10.757Z,19.38
2022-08-25T03:11:38.435Z,19.39
2022-08-25T03:14:18.729Z,19.48
2022-08-25T03:16:46.518Z,19.58
2022-08-25T03:19:13.193Z,19.65
2022-08-25T03:21:46.775Z,19.68
2022-08-25T03:24:19.797Z,19.75
2022-08-25T03:26:55.967Z,19.81
2022-08-25T03:29:39.743Z,19.80
2022-08-25T03:32:06.613Z,19.83
2022-08-25T03:34:39.751Z,19.89
2022-08-25T03:37:08.522Z,19.89
2022-08-25T03:39:42.939Z,19.84
2022-08-25T03:42:09.495Z,19.86
2022-08-25T03:44:49.771Z,19.87
2022-08-25T03:47:16.164Z,19.86
2022-08-25T03:49:42.558Z,19.81
2022-08-25T03:52:16.869Z,19.78
2022-08-25T03:54:50.754Z,19.80
2022-08-25T03:57:23.753Z,19.79
2022-08-25T03:59:50.280Z,19.72
2022-08-25T04:02:16.791Z,19.72
2022-08-25T04:04:49.746Z,19.63
2022-08-25T04:07:26.822Z,19.49
2022-08-25T04:09:56.272Z,19.39
2022-08-25T04:12:30.765Z,19.31
2022-08-25T04:14:58.150Z,19.27
2022-08-25T04:17:30.792Z,19.24
2022-08-25T04:20:04.945Z,19.21
2022-08-25T04:22:31.803Z,19.20
2022-08-25T04:25:11.942Z,19.16
2022-08-25T04:27:38.327Z,19.14
2022-08-25T04:30:12.722Z,19.13
2022-08-25T04:32:52.752Z,19.10
2022-08-25T04:35:26.731Z,19.08
2022-08-25T04:37:53.207Z,19.10
2022-08-25T04:40:20.211Z,19.15
2022-08-25T04:43:01.741Z,19.13
2022-08-25T04:45:28.195Z,19.13
2022-08-25T04:47:56.822Z,19.12
2022-08-25T04:50:29.736Z,19.16
2022-08-25T04:53:02.727Z,19.20
2022-08-25T04:55:29.189Z,19.27
2022-08-25T04:58:01.801Z,19.43
2022-08-25T05:00:34.766Z,19.91
2022-08-25T05:03:08.927Z,20.29
2022-08-25T05:05:39.253Z,20.40
2022-08-25T05:08:12.779Z,20.47
2022-08-25T05:10:40.882Z,20.90
2022-08-25T05:13:08.837Z,21.39
2022-08-25T05:15:56.919Z,21.81
2022-08-25T05:18:28.850Z,22.21
2022-08-25T05:21:02.735Z,22.61
2022-08-25T05:23:29.228Z,22.89
2022-08-25T05:26:03.752Z,23.29
2022-08-25T05:28:30.251Z,23.52
2022-08-25T05:31:01.535Z,23.59
2022-08-25T05:33:35.860Z,23.70
2022-08-25T05:36:10.007Z,23.51
2022-08-25T05:38:43.739Z,22.64
2022-08-25T05:41:16.219Z,22.41
2022-08-25T05:43:50.712Z,22.59
2022-08-25T05:46:19.433Z,23.47
2022-08-25T05:48:52.717Z,24.16
2022-08-25T05:51:27.736Z,24.57
2022-08-25T05:53:54.450Z,24.53
2022-08-25T05:56:21.073Z,24.15
2022-08-25T05:58:54.932Z,24.01
2022-08-25T06:01:45.027Z,24.06
2022-08-25T06:04:19.777Z,23.98
2022-08-25T06:06:53.772Z,23.73
2022-08-25T06:09:27.746Z,23.44
2022-08-25T06:11:55.368Z,23.24
2022-08-25T06:14:23.329Z,23.32
2022-08-25T06:16:57.755Z,23.31
2022-08-25T06:19:24.225Z,23.17
2022-08-25T06:22:00.710Z,23.05
2022-08-25T06:24:29.099Z,22.93
2022-08-25T06:27:03.766Z,22.80
2022-08-25T06:29:30.222Z,22.74
2022-08-25T06:32:03.877Z,22.68
2022-08-25T06:34:33.827Z,22.77
2022-08-25T15:22:41.791Z,34.51
2022-08-25T15:25:08.814Z,34.28
2022-08-25T15:27:41.716Z,34.13
2022-08-25T15:30:15.756Z,34.11
2022-08-25T15:32:42.285Z,33.98
2022-08-25T15:35:15.721Z,33.91
2022-08-25T15:37:42.227Z,33.96
2022-08-25T15:40:15.986Z,34.02
2022-08-25T15:42:43.008Z,33.86
2022-08-25T15:45:19.925Z,34.11
2022-08-25T15:47:46.631Z,34.07
2022-08-25T15:50:29.942Z,33.80
2022-08-25T15:52:56.683Z,33.56
2022-08-25T15:55:29.729Z,33.39
2022-08-25T15:58:02.948Z,33.68
2022-08-25T16:00:38.097Z,33.93
2022-08-25T16:03:05.023Z,34.18
2022-08-25T16:05:53.784Z,34.04
2022-08-25T16:08:20.812Z,33.53
2022-08-25T16:10:47.659Z,33.32
2022-08-25T16:13:23.908Z,33.13
2022-08-25T16:15:56.975Z,32.86
2022-08-25T16:18:30.171Z,32.73
2022-08-25T16:24:07.707Z,33.12
2022-08-25T16:26:48.215Z,33.04
2022-08-25T16:29:15.726Z,32.89
2022-08-25T16:31:43.256Z,32.76
2022-08-25T16:34:17.845Z,32.88
2022-08-25T16:36:52.023Z,32.80
2022-08-25T16:39:27.755Z,32.40
2022-08-25T16:42:01.933Z,32.16
2022-08-25T16:44:34.785Z,32.14
2022-08-25T16:47:09.927Z,32.06
2022-08-25T16:49:52.712Z,31.99
2022-08-25T16:52:48.732Z,31.88
2022-08-25T16:55:16.373Z,31.80
2022-08-25T16:57:52.757Z,31.56
2022-08-25T17:00:25.386Z,31.42
2022-08-25T17:03:18.474Z,30.93
2022-08-25T17:05:45.254Z,30.65
2022-08-25T17:08:36.732Z,30.48
2022-08-25T17:11:07.222Z,30.43
2022-08-25T17:13:44.553Z,30.33
2022-08-25T17:16:12.952Z,30.11
2022-08-25T17:18:55.916Z,30.02
2022-08-25T17:21:26.683Z,29.99
2022-08-25T17:24:01.919Z,30.03
2022-08-25T17:26:31.420Z,30.06
2022-08-25T17:29:07.945Z,30.01
2022-08-25T17:31:39.616Z,29.96
2022-08-25T17:34:20.289Z,29.93
2022-08-25T17:36:47.799Z,29.85
2022-08-25T17:39:22.268Z,29.76
2022-08-25T17:41:49.818Z,29.68
2022-08-25T17:44:23.756Z,29.62
2022-08-25T17:46:51.558Z,29.53
2022-08-25T17:49:25.731Z,29.42
2022-08-25T17:51:52.183Z,29.27
2022-08-25T17:54:18.766Z,29.14
2022-08-25T17:56:51.703Z,29.01
2022-08-25T17:59:19.629Z,28.92
2022-08-25T18:01:55.513Z,28.80
2022-08-25T18:04:22.681Z,28.67
2022-08-25T18:06:55.769Z,28.45
2022-08-25T18:09:22.805Z,28.37
2022-08-25T18:11:52.416Z,28.31
2022-08-25T18:14:25.898Z,28.24
2022-08-25T18:16:54.058Z,28.15
2022-08-25T18:19:33.698Z,28.05
2022-08-25T18:22:04.214Z,27.89
2022-08-25T18:24:37.718Z,27.76
2022-08-25T18:27:04.407Z,27.66
2022-08-25T18:29:42.735Z,27.51
2022-08-25T18:32:09.668Z,27.39
2022-08-25T18:34:39.099Z,27.26
2022-08-25T18:37:33.728Z,27.10
2022-08-25T18:40:18.843Z,27.03
2022-08-25T18:42:51.917Z,26.94
2022-08-25T18:45:19.424Z,26.81
2022-08-25T18:47:53.792Z,26.74
2022-08-25T18:50:20.666Z,26.63
2022-08-25T18:52:55.163Z,26.56
2022-08-25T18:55:29.735Z,26.43
2022-08-25T18:57:57.655Z,26.35
2022-08-25T19:00:35.717Z,26.25
2022-08-25T19:03:08.977Z,26.14
2022-08-25T19:05:45.138Z,26.03
2022-08-25T19:08:23.915Z,25.96
2022-08-25T19:10:52.823Z,25.89
2022-08-25T19:13:25.733Z,25.78
2022-08-25T19:15:52.556Z,25.70
2022-08-25T19:18:33.855Z,25.64
2022-08-25T19:21:07.712Z,25.55
2022-08-25T19:23:45.906Z,25.46
2022-08-25T19:26:19.726Z,25.32
2022-08-25T19:28:55.763Z,25.21
2022-08-25T19:31:33.798Z,25.12
2022-08-25T19:34:07.928Z,24.97
2022-08-25T19:36:40.914Z,24.91
2022-08-25T19:39:10.111Z,24.82
2022-08-25T19:41:43.711Z,24.75
2022-08-25T19:44:12.157Z,24.66
2022-08-25T19:46:47.719Z,24.57
2022-08-25T19:49:31.517Z,24.43
2022-08-25T19:51:58.358Z,24.32
2022-08-25T19:54:39.698Z,24.21
2022-08-25T19:57:27.886Z,24.14
2022-08-25T20:00:03.706Z,24.04
2022-08-25T20:02:31.849Z,23.96
2022-08-25T20:05:07.730Z,23.94
2022-08-25T20:07:35.127Z,23.82
2022-08-25T20:10:02.335Z,23.76
2022-08-25T20:12:35.825Z,23.67
2022-08-25T20:15:04.014Z,23.58
2022-08-25T20:17:37.928Z,23.54
2022-08-25T20:20:21.159Z,23.48
2022-08-25T20:22:55.685Z,23.41
2022-08-25T20:25:25.325Z,23.38
2022-08-25T20:28:01.943Z,23.30
2022-08-25T20:30:30.158Z,23.24
2022-08-25T20:33:03.961Z,23.15
2022-08-25T20:35:34.952Z,23.09
2022-08-25T20:38:10.782Z,22.99
2022-08-25T20:40:40.667Z,22.97
2022-08-25T20:43:13.858Z,22.93
2022-08-25T20:45:47.821Z,22.85
2022-08-25T20:48:20.707Z,22.79
2022-08-25T20:50:54.396Z,22.77
2022-08-25T20:53:30.710Z,22.72
2022-08-25T20:56:03.943Z,22.66
2022-08-25T20:58:30.608Z,22.60
2022-08-25T21:00:56.987Z,22.53
2022-08-25T21:03:29.772Z,22.47
2022-08-25T21:05:56.556Z,22.43
2022-08-25T21:08:23.782Z,22.35
2022-08-25T21:10:59.746Z,22.32
2022-08-25T21:13:26.230Z,22.25
2022-08-25T21:16:08.927Z,22.17
2022-08-25T21:18:36.472Z,22.07
2022-08-25T21:21:17.835Z,22.05
2022-08-25T21:23:54.716Z,21.99
2022-08-25T21:26:26.204Z,21.96
2022-08-25T21:28:59.751Z,21.91
2022-08-25T21:31:27.925Z,21.88
2022-08-25T21:34:03.705Z,21.84
2022-08-25T21:36:31.348Z,21.81
2022-08-25T21:38:59.968Z,21.75
2022-08-25T21:41:37.752Z,21.70
2022-08-25T21:44:10.699Z,21.67
2022-08-25T21:46:38.301Z,21.66
2022-08-25T21:49:14.916Z,21.62
2022-08-25T21:52:00.336Z,21.59
2022-08-25T21:54:28.667Z,21.54
2022-08-25T21:57:05.692Z,21.53
2022-08-25T21:59:34.930Z,21.51
2022-08-25T22:02:11.970Z,21.48
2022-08-25T22:04:39.559Z,21.47
2022-08-25T22:07:07.939Z,21.44
2022-08-25T22:09:41.703Z,21.40
2022-08-25T22:12:09.237Z,21.35
2022-08-25T22:14:43.732Z,21.34
2022-08-25T22:17:16.487Z,21.33
2022-08-25T22:19:43.757Z,21.31
2022-08-25T22:22:20.856Z,21.28
2022-08-25T22:24:47.538Z,21.25
2022-08-25T22:27:20.721Z,21.19
2022-08-25T22:29:57.945Z,21.12
2022-08-25T22:32:30.695Z,21.11
2022-08-25T22:34:57.160Z,21.10
2022-08-25T22:37:30.418Z,21.10
2022-08-25T22:39:57.047Z,21.10
2022-08-25T22:42:31.704Z,21.08
2022-08-25T22:44:58.359Z,21.05
2022-08-25T22:47:31.729Z,21.02
2022-08-25T22:50:05.752Z,20.98
2022-08-25T22:52:34.685Z,20.98
2022-08-25T22:55:02.878Z,20.97
2022-08-25T22:57:35.828Z,20.95
2022-08-25T23:00:03.048Z,20.93
2022-08-25T23:02:37.728Z,20.90
2022-08-25T23:05:05.167Z,20.91
2022-08-25T23:07:35.743Z,20.92
2022-08-25T23:10:11.892Z,20.94
2022-08-25T23:12:40.383Z,20.94
2022-08-25T23:15:17.677Z,20.92
2022-08-25T23:17:58.702Z,20.90
2022-08-25T23:20:51.752Z,20.91
2022-08-25T23:23:18.272Z,20.86
2022-08-25T23:25:51.700Z,20.81
2022-08-25T23:28:18.504Z,20.84
2022-08-25T23:30:51.815Z,20.85
2022-08-25T23:33:26.895Z,20.89
2022-08-25T23:36:07.871Z,20.88
2022-08-25T23:38:41.895Z,20.90
2022-08-25T23:41:20.104Z,20.91
2022-08-25T23:43:55.683Z,20.90
2022-08-25T23:46:24.277Z,20.90
2022-08-25T23:49:01.692Z,20.91
2022-08-25T23:51:30.745Z,20.89
2022-08-25T23:53:59.256Z,20.90
2022-08-25T23:56:32.887Z,20.92
2022-08-25T23:58:59.648Z,20.91
